Terminal Aerodrome Forecast
Issued by NWS

Home | Current Version | Previous Version | Text Only | Print | Product List | Glossary On
Versions: 1 2 3 4 5 6 7 8 9 10 11 12 13 14 15 16 17 18 19 20 21 22 23 24 25 26 27 28
000
FTUS44 KLZK 261720
TAFLIT
TAF
KLIT 261720Z 2618/2718 VRB04KT P6SM SCT020 BKN060
     FM262000 08007KT P6SM VCTS BKN050 BKN100CB
     FM270000 VRB04KT P6SM SCT250
      TEMPO 2709/2713 4SM BR
     FM271300 03005KT P6SM SCT250=

USA.gov is the U.S. government's official web portal to all federal, state and local government web resources and services.